EDT,Max TemperatureF,Mean TemperatureF,Min TemperatureF,Max Dew PointF,MeanDew PointF,Min DewpointF,Max Humidity, Mean Humidity, Min Humidity, Max Sea Level PressureIn, Mean Sea Level PressureIn, Min Sea Level PressureIn, Max VisibilityMiles, Mean VisibilityMiles, Min VisibilityMiles, Max Wind SpeedMPH, Mean Wind SpeedMPH, Max Gust SpeedMPH,PrecipitationIn, CloudCover, Events, WindDirDegrees
2013-3-1,40,36,32,34,31,28,100,82,64,30.00,29.96,29.93,10,7,1,14,6,17,0.03,8,Rain-Snow,309
2013-3-2,32,29,25,30,26,20,100,86,72,30.10,30.00,29.93,10,5,2,12,7,16,0.03,8,Snow,340
2013-3-3,32,28,23,21,19,17,88,73,58,30.11,30.09,30.07,10,10,6,13,5,16,T,7,Snow,306
2013-3-4,47,32,17,27,19,14,92,62,31,30.19,30.10,30.00,10,10,10,8,2,13,T,3,,124
2013-3-5,49,40,30,46,38,25,100,75,49,29.97,29.77,29.57,10,5,2,37,9,51,1.68,8,Rain-Snow,174
2013-3-6,30,29,28,28,26,23,92,85,78,30.29,30.01,29.80,10,5,1,24,10,33,T,8,Snow,291
2013-3-7,33,31,29,27,26,24,92,81,69,30.39,30.33,30.23,10,10,9,8,4,10,T,8,,346
2013-3-8,49,37,24,28,25,21,88,67,45,30.45,30.39,30.34,10,10,8,13,4,16,0.00,1,,27
2013-3-9,66,48,30,30,27,24,78,51,24,30.34,30.22,30.12,10,10,10,9,3,14,0.00,2,,170
2013-3-10,69,56,42,33,30,28,58,40,22,30.10,30.01,29.90,10,10,10,18,6,24,0.00,0,,166
2013-3-11,60,50,40,54,44,31,100,68,36,29.92,29.82,29.73,10,8,2,21,11,30,0.62,6,Rain,222
2013-3-12,48,41,34,34,30,27,82,66,49,30.11,30.01,29.92,10,10,6,15,6,18,0.01,6,Rain,271
2013-3-13,37,32,27,28,21,14,82,63,43,30.36,30.20,30.07,10,10,6,22,11,30,T,7,Snow,287
2013-3-14,45,33,20,24,17,14,84,57,30,30.41,30.34,30.26,10,10,7,15,4,17,0.00,3,,276
2013-3-15,66,48,29,41,31,24,78,56,34,30.24,30.03,29.85,10,10,10,14,5,21,T,2,,227
2013-3-16,73,63,52,48,45,42,71,56,41,29.92,29.80,29.74,10,10,9,26,11,33,T,2,Rain,259
2013-3-17,52,46,39,43,39,36,92,79,66,30.04,29.96,29.90,10,8,5,17,8,23,0.13,8,Rain,43
2013-3-18,59,49,39,52,49,38,100,89,77,29.91,29.80,29.73,10,6,0,17,7,23,1.66,8,Fog-Rain-Thunderstorm,159
2013-3-19,50,41,32,43,24,6,96,57,18,30.16,30.05,29.87,10,10,10,24,9,31,0.00,1,,285
2013-3-20,49,37,24,24,18,9,88,59,29,30.15,30.06,29.91,10,10,10,24,9,33,0.00,2,,282
2013-3-21,35,27,19,12,10,8,67,53,38,30.06,30.01,29.98,10,10,10,16,7,22,0.00,3,,312
2013-3-22,40,29,18,19,13,10,92,61,30,30.11,30.06,30.03,10,10,10,8,1,12,0.00,5,,196
2013-3-23,54,46,37,32,25,17,52,46,40,30.03,29.96,29.79,10,10,10,9,3,13,0.00,6,,73
2013-3-24,53,44,35,49,40,28,100,75,49,29.79,29.52,29.33,10,6,2,33,8,48,0.86,8,Rain-Thunderstorm,267
2013-3-25,36,33,30,32,28,26,92,84,75,30.00,29.72,29.52,10,4,0,26,15,37,0.04,8,Fog-Rain-Snow,266
2013-3-26,39,35,31,31,28,26,92,78,64,30.29,30.13,30.00,10,7,1,16,8,21,0.02,8,Snow,289
2013-3-27,42,36,30,29,24,21,92,69,45,30.36,30.32,30.28,10,10,10,14,4,17,0.00,6,,292
2013-3-28,51,38,24,28,23,21,92,62,32,30.38,30.33,30.29,10,10,7,13,2,17,0.00,1,,324
2013-3-29,47,37,26,39,32,23,92,69,45,30.35,30.30,30.25,10,10,6,13,3,17,T,6,Rain,214
2013-3-30,57,43,28,40,35,28,100,76,51,30.25,30.17,29.98,10,5,0,17,3,13,0.09,2,Fog,165
2013-3-31,56,49,42,50,47,41,100,83,66,29.97,29.88,29.83,10,8,2,16,7,21,0.28,7,Rain,243